sensor_id;sensor_type;location;lat;lon;timestamp;pressure;altitude;pressure_sealevel;temperature;humidity
70445;BME280;57902;49.638;11.070;2023-05-29T00:01:27;98365.84;;;13.24;64.15
70445;BME280;57902;49.638;11.070;2023-05-29T00:03:53;98363.41;;;13.20;64.21
70445;BME280;57902;49.638;11.070;2023-05-29T00:06:20;98360.22;;;13.13;64.57
70445;BME280;57902;49.638;11.070;2023-05-29T00:08:46;98361.19;;;13.10;65.28
70445;BME280;57902;49.638;11.070;2023-05-29T00:11:13;98358.28;;;12.96;66.54
70445;BME280;57902;49.638;11.070;2023-05-29T00:13:39;98360.09;;;12.94;65.77
70445;BME280;57902;49.638;11.070;2023-05-29T00:16:07;98368.28;;;12.82;66.71
70445;BME280;57902;49.638;11.070;2023-05-29T00:18:35;98365.16;;;12.73;67.53
70445;BME280;57902;49.638;11.070;2023-05-29T00:21:02;98368.81;;;12.68;67.16
70445;BME280;57902;49.638;11.070;2023-05-29T00:23:29;98361.28;;;12.62;67.52
70445;BME280;57902;49.638;11.070;2023-05-29T00:25:55;98354.19;;;12.67;67.36
70445;BME280;57902;49.638;11.070;2023-05-29T00:28:22;98350.81;;;12.65;66.75
70445;BME280;57902;49.638;11.070;2023-05-29T00:30:48;98344.81;;;12.64;66.81
70445;BME280;57902;49.638;11.070;2023-05-29T00:33:15;98340.53;;;12.63;66.95
70445;BME280;57902;49.638;11.070;2023-05-29T00:35:41;98341.78;;;12.53;67.16
70445;BME280;57902;49.638;11.070;2023-05-29T00:38:08;98344.91;;;12.61;67.22
70445;BME280;57902;49.638;11.070;2023-05-29T00:40:34;98349.19;;;12.62;67.20
70445;BME280;57902;49.638;11.070;2023-05-29T00:43:01;98348.25;;;12.65;66.40
70445;BME280;57902;49.638;11.070;2023-05-29T00:45:27;98353.34;;;12.66;66.43
70445;BME280;57902;49.638;11.070;2023-05-29T00:47:54;98351.53;;;12.68;66.49
70445;BME280;57902;49.638;11.070;2023-05-29T00:50:21;98351.19;;;12.55;67.40
70445;BME280;57902;49.638;11.070;2023-05-29T00:52:48;98350.66;;;12.46;67.79
70445;BME280;57902;49.638;11.070;2023-05-29T00:55:15;98356.16;;;12.36;67.81
70445;BME280;57902;49.638;11.070;2023-05-29T00:57:42;98357.84;;;12.37;68.99
70445;BME280;57902;49.638;11.070;2023-05-29T01:00:09;98352.59;;;12.39;67.72
70445;BME280;57902;49.638;11.070;2023-05-29T01:02:41;98356.31;;;12.32;68.04
70445;BME280;57902;49.638;11.070;2023-05-29T01:05:12;98357.28;;;12.29;68.49
70445;BME280;57902;49.638;11.070;2023-05-29T01:07:38;98346.13;;;12.27;68.85
70445;BME280;57902;49.638;11.070;2023-05-29T01:10:06;98360.09;;;12.21;68.83
70445;BME280;57902;49.638;11.070;2023-05-29T01:12:41;98360.28;;;12.17;69.46
70445;BME280;57902;49.638;11.070;2023-05-29T01:15:14;98360.38;;;12.14;70.26
70445;BME280;57902;49.638;11.070;2023-05-29T01:20:51;98357.31;;;12.02;70.64
70445;BME280;57902;49.638;11.070;2023-05-29T01:29:00;98372.56;;;11.83;71.12
70445;BME280;57902;49.638;11.070;2023-05-29T01:31:28;98364.41;;;11.70;71.94
70445;BME280;57902;49.638;11.070;2023-05-29T01:33:58;98367.00;;;11.70;72.05
70445;BME280;57902;49.638;11.070;2023-05-29T01:36:26;98369.66;;;11.67;72.12
70445;BME280;57902;49.638;11.070;2023-05-29T01:38:55;98363.94;;;11.58;73.45
70445;BME280;57902;49.638;11.070;2023-05-29T01:41:23;98362.91;;;11.63;72.54
70445;BME280;57902;49.638;11.070;2023-05-29T01:43:52;98362.25;;;11.56;73.57
70445;BME280;57902;49.638;11.070;2023-05-29T01:46:20;98361.47;;;11.54;73.90
70445;BME280;57902;49.638;11.070;2023-05-29T01:48:47;98358.91;;;11.54;73.74
70445;BME280;57902;49.638;11.070;2023-05-29T01:51:14;98358.34;;;11.45;74.75
70445;BME280;57902;49.638;11.070;2023-05-29T01:53:42;98357.44;;;11.46;75.48
70445;BME280;57902;49.638;11.070;2023-05-29T01:56:09;98351.63;;;11.39;74.38
70445;BME280;57902;49.638;11.070;2023-05-29T01:58:38;98344.75;;;11.40;74.77
70445;BME280;57902;49.638;11.070;2023-05-29T02:01:05;98351.63;;;11.39;74.95
70445;BME280;57902;49.638;11.070;2023-05-29T02:03:33;98345.84;;;11.32;74.86
70445;BME280;57902;49.638;11.070;2023-05-29T02:06:00;98351.00;;;11.32;74.99
70445;BME280;57902;49.638;11.070;2023-05-29T02:08:26;98363.19;;;11.27;75.60
70445;BME280;57902;49.638;11.070;2023-05-29T02:10:53;98351.25;;;11.23;75.23
70445;BME280;57902;49.638;11.070;2023-05-29T02:13:20;98352.91;;;11.26;75.46
70445;BME280;57902;49.638;11.070;2023-05-29T02:15:47;98355.72;;;11.18;75.41
70445;BME280;57902;49.638;11.070;2023-05-29T02:18:15;98348.00;;;11.18;76.00
70445;BME280;57902;49.638;11.070;2023-05-29T02:20:43;98345.59;;;11.12;76.59
70445;BME280;57902;49.638;11.070;2023-05-29T02:23:10;98336.22;;;11.09;74.00
70445;BME280;57902;49.638;11.070;2023-05-29T02:25:37;98343.16;;;11.07;76.79
70445;BME280;57902;49.638;11.070;2023-05-29T02:28:03;98341.53;;;11.05;76.64
70445;BME280;57902;49.638;11.070;2023-05-29T02:30:30;98337.09;;;11.08;77.73
70445;BME280;57902;49.638;11.070;2023-05-29T02:32:57;98341.63;;;11.01;77.21
70445;BME280;57902;49.638;11.070;2023-05-29T02:35:23;98343.56;;;10.93;77.59
70445;BME280;57902;49.638;11.070;2023-05-29T02:37:50;98343.63;;;10.92;77.39
70445;BME280;57902;49.638;11.070;2023-05-29T02:40:17;98333.31;;;10.92;76.80
70445;BME280;57902;49.638;11.070;2023-05-29T02:42:44;98330.81;;;10.89;77.52
70445;BME280;57902;49.638;11.070;2023-05-29T02:45:11;98335.44;;;10.77;77.00
70445;BME280;57902;49.638;11.070;2023-05-29T02:47:37;98336.31;;;10.78;77.91
70445;BME280;57902;49.638;11.070;2023-05-29T02:50:05;98344.03;;;10.78;78.30
70445;BME280;57902;49.638;11.070;2023-05-29T02:52:32;98335.41;;;10.79;78.22
70445;BME280;57902;49.638;11.070;2023-05-29T02:54:58;98345.81;;;10.76;77.56
70445;BME280;57902;49.638;11.070;2023-05-29T02:57:25;98352.84;;;10.71;77.63
70445;BME280;57902;49.638;11.070;2023-05-29T02:59:52;98345.31;;;10.64;78.31
70445;BME280;57902;49.638;11.070;2023-05-29T03:02:18;98349.59;;;10.64;77.79
70445;BME280;57902;49.638;11.070;2023-05-29T03:04:45;98343.75;;;10.59;78.42
70445;BME280;57902;49.638;11.070;2023-05-29T03:07:12;98349.72;;;10.59;78.63
70445;BME280;57902;49.638;11.070;2023-05-29T03:09:39;98345.44;;;10.58;78.58
70445;BME280;57902;49.638;11.070;2023-05-29T03:12:05;98347.19;;;10.58;78.29
70445;BME280;57902;49.638;11.070;2023-05-29T03:14:32;98342.41;;;10.44;79.35
70445;BME280;57902;49.638;11.070;2023-05-29T03:17:05;98338.09;;;10.46;80.20
70445;BME280;57902;49.638;11.070;2023-05-29T03:19:33;98346.97;;;10.36;80.45
70445;BME280;57902;49.638;11.070;2023-05-29T03:21:59;98343.53;;;10.35;79.66
70445;BME280;57902;49.638;11.070;2023-05-29T03:24:26;98347.78;;;10.36;79.67
70445;BME280;57902;49.638;11.070;2023-05-29T03:26:53;98347.84;;;10.33;80.10
70445;BME280;57902;49.638;11.070;2023-05-29T03:29:20;98346.97;;;10.36;79.46
70445;BME280;57902;49.638;11.070;2023-05-29T03:31:46;98343.50;;;10.37;80.11
70445;BME280;57902;49.638;11.070;2023-05-29T03:34:13;98344.19;;;10.42;81.11
70445;BME280;57902;49.638;11.070;2023-05-29T03:36:40;98343.16;;;10.49;80.52
70445;BME280;57902;49.638;11.070;2023-05-29T03:39:06;98356.00;;;10.50;80.21
70445;BME280;57902;49.638;11.070;2023-05-29T03:41:32;98348.16;;;10.54;80.32
70445;BME280;57902;49.638;11.070;2023-05-29T03:43:59;98351.59;;;10.54;79.19
70445;BME280;57902;49.638;11.070;2023-05-29T03:46:26;98352.34;;;10.58;79.05
70445;BME280;57902;49.638;11.070;2023-05-29T03:48:53;98349.13;;;10.49;79.42
70445;BME280;57902;49.638;11.070;2023-05-29T03:51:20;98355.06;;;10.53;78.88
70445;BME280;57902;49.638;11.070;2023-05-29T03:53:46;98354.78;;;10.62;78.25
70445;BME280;57902;49.638;11.070;2023-05-29T03:56:13;98352.16;;;10.64;78.06
70445;BME280;57902;49.638;11.070;2023-05-29T03:58:42;98351.94;;;10.72;77.87
70445;BME280;57902;49.638;11.070;2023-05-29T04:01:09;98361.22;;;10.77;77.71
70445;BME280;57902;49.638;11.070;2023-05-29T04:03:35;98366.22;;;10.83;77.86
70445;BME280;57902;49.638;11.070;2023-05-29T04:06:02;98370.78;;;11.03;77.71
70445;BME280;57902;49.638;11.070;2023-05-29T04:08:29;98369.16;;;11.56;74.35
70445;BME280;57902;49.638;11.070;2023-05-29T04:10:56;98372.19;;;12.21;72.62
70445;BME280;57902;49.638;11.070;2023-05-29T04:13:22;98373.56;;;12.78;69.56
70445;BME280;57902;49.638;11.070;2023-05-29T04:15:49;98381.47;;;13.45;66.52
70445;BME280;57902;49.638;11.070;2023-05-29T04:18:20;98385.59;;;13.92;64.65
70445;BME280;57902;49.638;11.070;2023-05-29T04:20:46;98381.44;;;14.29;62.80
70445;BME280;57902;49.638;11.070;2023-05-29T04:23:15;98397.34;;;14.62;61.32
70445;BME280;57902;49.638;11.070;2023-05-29T04:25:42;98403.31;;;15.02;59.50
70445;BME280;57902;49.638;11.070;2023-05-29T04:28:10;98402.31;;;15.43;58.23
70445;BME280;57902;49.638;11.070;2023-05-29T04:30:37;98403.00;;;15.83;57.26
70445;BME280;57902;49.638;11.070;2023-05-29T04:33:05;98394.28;;;15.84;57.48
70445;BME280;57902;49.638;11.070;2023-05-29T04:35:32;98395.34;;;16.49;56.38
70445;BME280;57902;49.638;11.070;2023-05-29T04:37:58;98396.28;;;16.81;55.23
70445;BME280;57902;49.638;11.070;2023-05-29T04:40:25;98402.63;;;17.25;54.36
70445;BME280;57902;49.638;11.070;2023-05-29T04:42:51;98407.75;;;17.26;53.36
70445;BME280;57902;49.638;11.070;2023-05-29T04:45:20;98414.38;;;17.64;52.31
70445;BME280;57902;49.638;11.070;2023-05-29T04:47:47;98420.88;;;18.03;50.19
70445;BME280;57902;49.638;11.070;2023-05-29T04:50:15;98429.81;;;18.44;49.86
70445;BME280;57902;49.638;11.070;2023-05-29T04:52:42;98434.91;;;18.90;49.44
70445;BME280;57902;49.638;11.070;2023-05-29T04:55:09;98427.78;;;19.21;47.99
70445;BME280;57902;49.638;11.070;2023-05-29T04:57:36;98435.53;;;19.08;46.86
70445;BME280;57902;49.638;11.070;2023-05-29T05:00:04;98429.09;;;18.56;50.14
70445;BME280;57902;49.638;11.070;2023-05-29T05:02:33;98427.31;;;18.71;48.60
70445;BME280;57902;49.638;11.070;2023-05-29T05:04:59;98431.41;;;19.18;47.94
70445;BME280;57902;49.638;11.070;2023-05-29T05:07:26;98438.72;;;20.22;44.72
70445;BME280;57902;49.638;11.070;2023-05-29T05:09:53;98436.41;;;20.43;43.90
70445;BME280;57902;49.638;11.070;2023-05-29T05:12:21;98432.13;;;20.55;44.64
70445;BME280;57902;49.638;11.070;2023-05-29T05:14:48;98441.19;;;21.27;41.94
70445;BME280;57902;49.638;11.070;2023-05-29T05:17:14;98446.53;;;21.25;43.84
70445;BME280;57902;49.638;11.070;2023-05-29T05:19:41;98449.72;;;22.03;40.31
70445;BME280;57902;49.638;11.070;2023-05-29T05:22:07;98459.63;;;21.75;41.49
70445;BME280;57902;49.638;11.070;2023-05-29T05:24:34;98461.56;;;21.84;40.05
70445;BME280;57902;49.638;11.070;2023-05-29T05:27:01;98468.13;;;22.50;38.65
70445;BME280;57902;49.638;11.070;2023-05-29T05:29:29;98466.34;;;22.39;39.22
70445;BME280;57902;49.638;11.070;2023-05-29T05:31:56;98468.78;;;22.76;37.88
70445;BME280;57902;49.638;11.070;2023-05-29T05:34:22;98473.22;;;23.32;36.59
70445;BME280;57902;49.638;11.070;2023-05-29T05:36:49;98481.66;;;22.68;37.32
70445;BME280;57902;49.638;11.070;2023-05-29T05:39:15;98474.78;;;23.01;37.85
70445;BME280;57902;49.638;11.070;2023-05-29T05:41:42;98478.72;;;23.40;37.30
70445;BME280;57902;49.638;11.070;2023-05-29T05:44:08;98481.66;;;23.58;36.52
70445;BME280;57902;49.638;11.070;2023-05-29T05:46:35;98473.47;;;23.18;37.65
70445;BME280;57902;49.638;11.070;2023-05-29T05:49:02;98466.88;;;23.01;38.49
70445;BME280;57902;49.638;11.070;2023-05-29T05:51:30;98477.38;;;23.46;38.33
70445;BME280;57902;49.638;11.070;2023-05-29T05:53:57;98484.50;;;23.67;37.24
70445;BME280;57902;49.638;11.070;2023-05-29T05:56:23;98484.38;;;24.12;35.75
70445;BME280;57902;49.638;11.070;2023-05-29T05:58:50;98479.78;;;23.49;38.14
70445;BME280;57902;49.638;11.070;2023-05-29T06:01:16;98487.31;;;23.42;37.15
70445;BME280;57902;49.638;11.070;2023-05-29T06:03:43;98481.72;;;23.13;38.81
70445;BME280;57902;49.638;11.070;2023-05-29T06:06:12;98478.75;;;24.17;37.25
70445;BME280;57902;49.638;11.070;2023-05-29T06:08:39;98481.28;;;24.82;36.58
70445;BME280;57902;49.638;11.070;2023-05-29T06:11:10;98486.66;;;24.80;36.40
70445;BME280;57902;49.638;11.070;2023-05-29T06:13:37;98486.56;;;24.91;35.36
70445;BME280;57902;49.638;11.070;2023-05-29T06:16:13;98484.34;;;25.78;34.69
70445;BME280;57902;49.638;11.070;2023-05-29T06:18:39;98482.56;;;25.78;34.42
70445;BME280;57902;49.638;11.070;2023-05-29T06:21:06;98487.72;;;24.98;37.23
70445;BME280;57902;49.638;11.070;2023-05-29T06:23:33;98483.25;;;24.89;37.25
70445;BME280;57902;49.638;11.070;2023-05-29T06:26:00;98481.59;;;26.38;33.30
70445;BME280;57902;49.638;11.070;2023-05-29T06:28:29;98488.66;;;25.59;35.53
70445;BME280;57902;49.638;11.070;2023-05-29T06:30:56;98486.22;;;26.07;33.79
70445;BME280;57902;49.638;11.070;2023-05-29T06:33:23;98488.25;;;25.83;32.92
70445;BME280;57902;49.638;11.070;2023-05-29T06:35:50;98483.78;;;25.84;33.52
70445;BME280;57902;49.638;11.070;2023-05-29T06:38:17;98495.09;;;26.45;32.63
70445;BME280;57902;49.638;11.070;2023-05-29T06:40:43;98497.06;;;26.23;31.76
70445;BME280;57902;49.638;11.070;2023-05-29T06:43:09;98495.91;;;25.96;32.37
70445;BME280;57902;49.638;11.070;2023-05-29T06:45:39;98499.38;;;26.55;31.27
70445;BME280;57902;49.638;11.070;2023-05-29T06:48:07;98492.41;;;26.64;33.22
70445;BME280;57902;49.638;11.070;2023-05-29T06:50:33;98496.63;;;27.04;32.69
70445;BME280;57902;49.638;11.070;2023-05-29T06:53:00;98501.22;;;27.68;30.06
70445;BME280;57902;49.638;11.070;2023-05-29T06:55:26;98503.28;;;27.74;30.62
70445;BME280;57902;49.638;11.070;2023-05-29T06:57:53;98499.63;;;27.19;30.77
70445;BME280;57902;49.638;11.070;2023-05-29T07:00:20;98504.78;;;28.49;29.17
70445;BME280;57902;49.638;11.070;2023-05-29T07:02:46;98503.31;;;28.72;29.79
70445;BME280;57902;49.638;11.070;2023-05-29T07:05:13;98505.72;;;28.21;28.92
70445;BME280;57902;49.638;11.070;2023-05-29T07:07:39;98509.28;;;28.12;29.43
70445;BME280;57902;49.638;11.070;2023-05-29T07:10:06;98508.38;;;28.03;28.82
70445;BME280;57902;49.638;11.070;2023-05-29T07:12:32;98504.19;;;28.19;28.83
70445;BME280;57902;49.638;11.070;2023-05-29T07:14:59;98504.16;;;28.55;29.09
70445;BME280;57902;49.638;11.070;2023-05-29T07:17:25;98499.66;;;28.29;28.35
70445;BME280;57902;49.638;11.070;2023-05-29T07:19:52;98509.13;;;28.14;28.52
70445;BME280;57902;49.638;11.070;2023-05-29T07:22:20;98507.84;;;28.00;29.08
70445;BME280;57902;49.638;11.070;2023-05-29T07:24:46;98511.84;;;27.86;29.29
70445;BME280;57902;49.638;11.070;2023-05-29T07:27:13;98506.84;;;27.83;29.29
70445;BME280;57902;49.638;11.070;2023-05-29T07:29:39;98503.13;;;27.75;30.06
70445;BME280;57902;49.638;11.070;2023-05-29T07:32:06;98506.44;;;27.77;30.01
70445;BME280;57902;49.638;11.070;2023-05-29T07:34:32;98512.47;;;27.98;29.63
70445;BME280;57902;49.638;11.070;2023-05-29T07:37:01;98513.09;;;28.54;29.23
70445;BME280;57902;49.638;11.070;2023-05-29T07:39:28;98504.97;;;29.34;26.84
70445;BME280;57902;49.638;11.070;2023-05-29T07:41:54;98501.50;;;28.73;28.54
70445;BME280;57902;49.638;11.070;2023-05-29T07:44:21;98511.53;;;28.61;28.67
70445;BME280;57902;49.638;11.070;2023-05-29T07:46:48;98505.41;;;28.60;28.93
70445;BME280;57902;49.638;11.070;2023-05-29T07:49:14;98501.56;;;28.63;27.79
70445;BME280;57902;49.638;11.070;2023-05-29T07:51:41;98496.81;;;28.93;27.04
70445;BME280;57902;49.638;11.070;2023-05-29T07:54:08;98500.56;;;28.20;27.23
70445;BME280;57902;49.638;11.070;2023-05-29T07:56:35;98502.19;;;28.57;27.20
70445;BME280;57902;49.638;11.070;2023-05-29T07:59:01;98496.44;;;28.43;26.76
70445;BME280;57902;49.638;11.070;2023-05-29T08:01:29;98510.81;;;29.11;25.40
70445;BME280;57902;49.638;11.070;2023-05-29T08:03:56;98510.06;;;28.67;26.82
70445;BME280;57902;49.638;11.070;2023-05-29T08:06:22;98509.88;;;28.42;27.12
70445;BME280;57902;49.638;11.070;2023-05-29T08:08:49;98522.66;;;28.46;26.11
70445;BME280;57902;49.638;11.070;2023-05-29T08:11:18;98515.91;;;27.80;27.50
70445;BME280;57902;49.638;11.070;2023-05-29T08:13:45;98510.75;;;27.79;27.20
70445;BME280;57902;49.638;11.070;2023-05-29T08:16:12;98506.00;;;28.36;25.96
70445;BME280;57902;49.638;11.070;2023-05-29T08:18:40;98507.47;;;28.13;26.69
70445;BME280;57902;49.638;11.070;2023-05-29T08:21:07;98507.63;;;28.11;26.65
70445;BME280;57902;49.638;11.070;2023-05-29T08:23:35;98501.63;;;27.45;27.78
70445;BME280;57902;49.638;11.070;2023-05-29T08:26:02;98504.91;;;27.57;27.60
70445;BME280;57902;49.638;11.070;2023-05-29T08:28:29;98497.34;;;27.62;28.04
70445;BME280;57902;49.638;11.070;2023-05-29T08:30:56;98497.88;;;27.66;27.49
70445;BME280;57902;49.638;11.070;2023-05-29T08:33:22;98503.41;;;27.72;27.22
70445;BME280;57902;49.638;11.070;2023-05-29T08:35:49;98504.97;;;27.47;27.13
70445;BME280;57902;49.638;11.070;2023-05-29T08:38:15;98506.44;;;26.65;29.05
70445;BME280;57902;49.638;11.070;2023-05-29T08:40:42;98504.13;;;26.42;28.79
70445;BME280;57902;49.638;11.070;2023-05-29T08:43:21;98499.38;;;26.65;28.33
70445;BME280;57902;49.638;11.070;2023-05-29T08:45:53;98501.91;;;26.47;29.07
70445;BME280;57902;49.638;11.070;2023-05-29T08:48:22;98494.13;;;26.36;27.52
70445;BME280;57902;49.638;11.070;2023-05-29T08:50:53;98494.97;;;26.17;29.83
70445;BME280;57902;49.638;11.070;2023-05-29T08:53:24;98488.53;;;25.80;30.10
70445;BME280;57902;49.638;11.070;2023-05-29T08:55:52;98491.69;;;25.64;28.61
70445;BME280;57902;49.638;11.070;2023-05-29T08:58:22;98487.66;;;25.50;28.95
70445;BME280;57902;49.638;11.070;2023-05-29T09:00:49;98483.47;;;25.48;29.44
70445;BME280;57902;49.638;11.070;2023-05-29T09:03:17;98490.09;;;25.32;29.87
70445;BME280;57902;49.638;11.070;2023-05-29T09:05:44;98481.00;;;25.15;30.73
70445;BME280;57902;49.638;11.070;2023-05-29T09:08:11;98482.97;;;24.92;29.35
70445;BME280;57902;49.638;11.070;2023-05-29T09:10:40;98482.44;;;24.98;28.83
70445;BME280;57902;49.638;11.070;2023-05-29T09:13:07;98476.91;;;25.02;30.57
70445;BME280;57902;49.638;11.070;2023-05-29T09:15:36;98487.44;;;25.02;29.67
70445;BME280;57902;49.638;11.070;2023-05-29T09:18:05;98475.25;;;25.01;29.25
70445;BME280;57902;49.638;11.070;2023-05-29T09:20:31;98479.81;;;24.98;29.49
70445;BME280;57902;49.638;11.070;2023-05-29T09:23:07;98476.03;;;24.91;29.02
70445;BME280;57902;49.638;11.070;2023-05-29T09:25:38;98478.78;;;24.90;28.75
70445;BME280;57902;49.638;11.070;2023-05-29T09:28:07;98477.13;;;24.89;31.55
70445;BME280;57902;49.638;11.070;2023-05-29T09:30:39;98476.06;;;25.01;31.02
70445;BME280;57902;49.638;11.070;2023-05-29T09:33:07;98479.66;;;25.00;29.70
70445;BME280;57902;49.638;11.070;2023-05-29T09:35:42;98483.31;;;25.09;30.17
70445;BME280;57902;49.638;11.070;2023-05-29T09:38:10;98487.81;;;25.28;29.42
70445;BME280;57902;49.638;11.070;2023-05-29T09:40:43;98490.31;;;25.20;28.64
70445;BME280;57902;49.638;11.070;2023-05-29T09:43:16;98498.59;;;25.15;28.55
70445;BME280;57902;49.638;11.070;2023-05-29T09:45:44;98491.50;;;25.06;28.41
70445;BME280;57902;49.638;11.070;2023-05-29T09:48:18;98492.56;;;24.93;29.28
70445;BME280;57902;49.638;11.070;2023-05-29T09:50:45;98487.09;;;24.85;29.89
70445;BME280;57902;49.638;11.070;2023-05-29T09:53:19;98489.69;;;24.75;29.86
70445;BME280;57902;49.638;11.070;2023-05-29T09:55:46;98486.28;;;24.63;30.03
70445;BME280;57902;49.638;11.070;2023-05-29T09:58:15;98488.25;;;24.50;30.19
70445;BME280;57902;49.638;11.070;2023-05-29T10:00:42;98489.09;;;24.51;31.20
70445;BME280;57902;49.638;11.070;2023-05-29T10:03:12;98488.13;;;24.52;31.36
70445;BME280;57902;49.638;11.070;2023-05-29T10:05:46;98479.34;;;24.62;31.55
70445;BME280;57902;49.638;11.070;2023-05-29T10:08:14;98473.97;;;24.64;29.64
70445;BME280;57902;49.638;11.070;2023-05-29T10:10:46;98475.28;;;24.79;30.01
70445;BME280;57902;49.638;11.070;2023-05-29T10:13:14;98468.16;;;25.01;29.06
70445;BME280;57902;49.638;11.070;2023-05-29T10:15:44;98473.03;;;25.06;29.03
70445;BME280;57902;49.638;11.070;2023-05-29T10:18:24;98469.97;;;25.01;29.26
70445;BME280;57902;49.638;11.070;2023-05-29T10:20:53;98471.50;;;25.03;28.17
70445;BME280;57902;49.638;11.070;2023-05-29T10:23:25;98468.97;;;25.02;30.08
70445;BME280;57902;49.638;11.070;2023-05-29T10:25:58;98467.19;;;25.02;29.24
70445;BME280;57902;49.638;11.070;2023-05-29T10:28:31;98459.94;;;24.94;30.39
70445;BME280;57902;49.638;11.070;2023-05-29T10:31:09;98460.47;;;24.88;29.13
70445;BME280;57902;49.638;11.070;2023-05-29T10:34:00;98460.03;;;24.83;31.15
70445;BME280;57902;49.638;11.070;2023-05-29T10:36:38;98455.91;;;24.90;30.26
70445;BME280;57902;49.638;11.070;2023-05-29T10:39:08;98465.47;;;24.91;31.47
70445;BME280;57902;49.638;11.070;2023-05-29T10:41:35;98458.56;;;25.00;28.43
70445;BME280;57902;49.638;11.070;2023-05-29T10:44:41;98459.84;;;25.06;28.97
70445;BME280;57902;49.638;11.070;2023-05-29T10:47:08;98455.31;;;25.18;29.07
70445;BME280;57902;49.638;11.070;2023-05-29T10:49:35;98453.38;;;25.29;30.37
70445;BME280;57902;49.638;11.070;2023-05-29T10:52:03;98462.34;;;25.38;29.35
70445;BME280;57902;49.638;11.070;2023-05-29T10:54:40;98461.50;;;25.38;28.66
70445;BME280;57902;49.638;11.070;2023-05-29T10:57:13;98459.47;;;25.20;28.81
70445;BME280;57902;49.638;11.070;2023-05-29T10:59:40;98456.66;;;25.12;28.60
70445;BME280;57902;49.638;11.070;2023-05-29T11:02:06;98455.50;;;24.95;28.88
70445;BME280;57902;49.638;11.070;2023-05-29T11:04:35;98447.41;;;24.87;29.29
70445;BME280;57902;49.638;11.070;2023-05-29T11:07:03;98449.38;;;24.94;28.89
70445;BME280;57902;49.638;11.070;2023-05-29T11:09:33;98448.63;;;25.13;28.78
70445;BME280;57902;49.638;11.070;2023-05-29T11:12:21;98448.38;;;25.17;29.40
70445;BME280;57902;49.638;11.070;2023-05-29T11:15:06;98444.88;;;25.16;30.00
70445;BME280;57902;49.638;11.070;2023-05-29T11:20:05;98440.41;;;25.38;28.46
70445;BME280;57902;49.638;11.070;2023-05-29T11:25:26;98442.59;;;25.32;28.13
70445;BME280;57902;49.638;11.070;2023-05-29T11:27:53;98437.31;;;25.32;30.03
70445;BME280;57902;49.638;11.070;2023-05-29T11:30:21;98438.84;;;25.35;28.98
70445;BME280;57902;49.638;11.070;2023-05-29T11:32:48;98444.78;;;25.27;28.67
70445;BME280;57902;49.638;11.070;2023-05-29T11:35:17;98436.56;;;25.21;27.90
70445;BME280;57902;49.638;11.070;2023-05-29T11:37:45;98440.94;;;25.31;28.12
70445;BME280;57902;49.638;11.070;2023-05-29T11:40:13;98432.50;;;25.47;27.98
70445;BME280;57902;49.638;11.070;2023-05-29T11:42:45;98441.38;;;25.46;27.81
70445;BME280;57902;49.638;11.070;2023-05-29T11:45:15;98439.13;;;25.32;27.62
70445;BME280;57902;49.638;11.070;2023-05-29T11:47:53;98427.84;;;25.30;27.64
70445;BME280;57902;49.638;11.070;2023-05-29T11:50:21;98427.97;;;25.19;29.37
70445;BME280;57902;49.638;11.070;2023-05-29T11:52:48;98426.25;;;25.39;28.71
70445;BME280;57902;49.638;11.070;2023-05-29T11:55:15;98433.16;;;25.40;27.89
70445;BME280;57902;49.638;11.070;2023-05-29T11:57:42;98428.19;;;25.46;27.17
70445;BME280;57902;49.638;11.070;2023-05-29T12:00:13;98436.66;;;25.40;28.39
70445;BME280;57902;49.638;11.070;2023-05-29T12:02:40;98433.03;;;25.41;28.96
70445;BME280;57902;49.638;11.070;2023-05-29T12:05:09;98438.34;;;25.51;28.31
70445;BME280;57902;49.638;11.070;2023-05-29T12:07:36;98431.25;;;25.42;27.55
70445;BME280;57902;49.638;11.070;2023-05-29T12:10:11;98426.47;;;25.36;28.39
70445;BME280;57902;49.638;11.070;2023-05-29T12:12:37;98429.88;;;25.47;27.96
70445;BME280;57902;49.638;11.070;2023-05-29T12:15:06;98426.50;;;25.45;27.38
70445;BME280;57902;49.638;11.070;2023-05-29T12:17:35;98433.06;;;25.51;27.80
70445;BME280;57902;49.638;11.070;2023-05-29T12:20:03;98424.28;;;25.41;27.79
70445;BME280;57902;49.638;11.070;2023-05-29T12:22:33;98420.69;;;25.42;28.86
70445;BME280;57902;49.638;11.070;2023-05-29T12:25:15;98420.69;;;25.61;28.52
70445;BME280;57902;49.638;11.070;2023-05-29T12:27:46;98426.53;;;25.75;28.07
70445;BME280;57902;49.638;11.070;2023-05-29T12:30:14;98416.81;;;25.65;28.84
70445;BME280;57902;49.638;11.070;2023-05-29T12:32:59;98418.47;;;25.76;28.60
70445;BME280;57902;49.638;11.070;2023-05-29T12:35:28;98419.88;;;25.71;27.75
70445;BME280;57902;49.638;11.070;2023-05-29T12:37:57;98423.47;;;25.60;27.65
70445;BME280;57902;49.638;11.070;2023-05-29T12:40:29;98420.09;;;25.38;28.41
70445;BME280;57902;49.638;11.070;2023-05-29T12:43:06;98413.88;;;25.49;28.05
70445;BME280;57902;49.638;11.070;2023-05-29T12:45:33;98408.91;;;25.65;28.84
70445;BME280;57902;49.638;11.070;2023-05-29T12:48:02;98399.28;;;25.84;28.98
70445;BME280;57902;49.638;11.070;2023-05-29T12:50:39;98403.59;;;25.85;27.53
70445;BME280;57902;49.638;11.070;2023-05-29T12:53:11;98409.03;;;25.64;28.45
70445;BME280;57902;49.638;11.070;2023-05-29T12:55:40;98406.53;;;25.53;28.32
70445;BME280;57902;49.638;11.070;2023-05-29T12:58:08;98400.69;;;25.59;28.01
70445;BME280;57902;49.638;11.070;2023-05-29T13:00:39;98403.59;;;25.46;29.04
70445;BME280;57902;49.638;11.070;2023-05-29T13:03:07;98405.38;;;25.36;29.12
70445;BME280;57902;49.638;11.070;2023-05-29T13:05:34;98398.19;;;25.47;28.43
70445;BME280;57902;49.638;11.070;2023-05-29T13:08:01;98399.56;;;25.52;28.72
70445;BME280;57902;49.638;11.070;2023-05-29T13:10:28;98402.19;;;25.52;28.08